Time;durP1;ratioP1;P1;durP2;ratioP2;P2;SDS_P1;SDS_P2;PMS_P1;PMS_P2;Temp;Humidity;BMP_temperature;BMP_pressure;BME280_temperature;BME280_humidity;BME280_pressure;Samples;Min_cycle;Max_cycle;Signal;HPM_P1;HPM_P2
2021/09/17 00:02:21;;;;;;;4.70;1.67;;;17.20;99.90;17.30;96457.00;;;;5064521;28;20991;-69
2021/09/17 00:05:11;;;;;;;6.20;1.70;;;17.20;99.90;17.20;96444.00;;;;5064299;28;20312;-71
2021/09/17 00:08:00;;;;;;;2.23;1.90;;;17.10;99.90;17.30;96447.00;;;;5064379;28;20667;-70
2021/09/17 00:10:49;;;;;;;2.87;1.40;;;17.20;99.90;17.30;96437.00;;;;5064556;28;20211;-70
2021/09/17 00:13:39;;;;;;;4.97;2.00;;;17.10;99.90;17.30;96442.00;;;;5063763;28;20247;-68
2021/09/17 00:16:28;;;;;;;2.37;1.83;;;17.10;99.90;17.20;96442.00;;;;5063945;28;20207;-69
2021/09/17 00:19:18;;;;;;;1.37;1.10;;;17.10;99.90;17.20;96444.00;;;;5061934;28;20210;-68
2021/09/17 00:22:08;;;;;;;1.30;1.20;;;17.50;99.90;17.10;96446.00;;;;5064272;28;20691;-69
2021/09/17 00:24:57;;;;;;;4.90;1.20;;;17.10;99.90;17.20;96444.00;;;;5064761;28;20971;-70
2021/09/17 00:27:46;;;;;;;1.57;1.13;;;17.10;99.90;17.20;96445.00;;;;5062922;28;20204;-69
2021/09/17 00:30:35;;;;;;;2.57;1.37;;;17.10;99.90;17.10;96450.00;;;;5063497;28;20208;-67
2021/09/17 00:33:24;;;;;;;2.63;1.47;;;17.00;99.90;16.90;96448.00;;;;5065148;28;20235;-68
2021/09/17 00:36:14;;;;;;;5.43;1.23;;;17.00;99.90;16.90;96443.00;;;;5064527;28;20231;-67
2021/09/17 00:39:04;;;;;;;1.27;1.17;;;17.00;99.90;17.00;96443.00;;;;5064129;28;20210;-69
2021/09/17 00:41:53;;;;;;;3.33;1.80;;;17.00;99.90;17.00;96444.00;;;;5064305;28;20428;-67
2021/09/17 00:44:42;;;;;;;4.40;1.57;;;16.90;99.90;17.10;96446.00;;;;5064040;28;20219;-71
2021/09/17 00:47:31;;;;;;;1.37;1.17;;;16.90;99.90;17.10;96444.00;;;;5063394;28;20215;-67
2021/09/17 00:50:22;;;;;;;1.47;0.97;;;16.90;99.90;17.00;96442.00;;;;5063403;28;20196;-67
2021/09/17 00:53:13;;;;;;;2.47;1.40;;;16.90;99.90;17.00;96442.00;;;;5064099;28;20236;-67
2021/09/17 00:56:03;;;;;;;1.60;1.10;;;16.90;99.90;17.00;96432.00;;;;5077354;28;20951;-69
2021/09/17 00:58:52;;;;;;;1.93;0.93;;;16.90;99.90;17.00;96440.00;;;;5062998;28;20200;-70
2021/09/17 01:01:41;;;;;;;4.10;1.43;;;16.90;99.90;17.00;96427.00;;;;5061760;28;20234;-68
2021/09/17 01:04:30;;;;;;;2.63;0.90;;;16.90;99.90;17.00;96428.00;;;;5062651;28;20204;-69
2021/09/17 01:07:19;;;;;;;2.07;1.30;;;16.90;99.90;17.00;96424.00;;;;5063157;28;20620;-69
2021/09/17 01:10:10;;;;;;;1.40;1.30;;;16.90;99.90;16.90;96425.00;;;;5062131;28;20208;-69
2021/09/17 01:13:00;;;;;;;1.10;0.83;;;16.90;99.90;16.90;96424.00;;;;5063818;28;20593;-67
2021/09/17 01:15:49;;;;;;;1.10;0.97;;;16.90;99.90;16.90;96411.00;;;;5062144;28;20216;-68
2021/09/17 01:18:37;;;;;;;1.70;1.20;;;16.90;99.90;16.90;96414.00;;;;5061082;28;20208;-70
2021/09/17 01:21:28;;;;;;;1.53;1.43;;;16.90;99.90;16.80;96412.00;;;;5060269;28;20699;-71
2021/09/17 01:24:16;;;;;;;2.07;1.17;;;16.90;99.90;16.80;96405.00;;;;5062992;28;20713;-70
2021/09/17 01:27:07;;;;;;;4.60;1.17;;;16.80;99.90;16.90;96402.00;;;;5063163;28;20211;-71
2021/09/17 01:29:57;;;;;;;0.90;0.90;;;16.80;99.90;16.90;96388.00;;;;5061300;28;20423;-69
2021/09/17 01:32:46;;;;;;;1.57;1.17;;;16.80;99.90;16.80;96397.00;;;;5062140;28;20227;-68
2021/09/17 01:35:35;;;;;;;7.60;1.10;;;16.80;99.90;16.70;96389.00;;;;5060850;28;20203;-68
2021/09/17 01:38:26;;;;;;;2.27;1.20;;;16.80;99.90;16.80;96389.00;;;;5061184;28;20215;-71
2021/09/17 01:41:15;;;;;;;3.60;1.00;;;16.80;99.90;16.90;96378.00;;;;5060787;28;20625;-70
2021/09/17 01:44:04;;;;;;;1.43;1.03;;;16.80;99.90;16.90;96374.00;;;;5061517;28;20207;-69
2021/09/17 01:46:53;;;;;;;1.77;1.23;;;16.80;99.90;16.80;96378.00;;;;5062680;28;20216;-68
2021/09/17 01:49:42;;;;;;;2.43;1.07;;;16.80;99.90;16.80;96385.00;;;;5061931;28;20691;-70
2021/09/17 01:52:31;;;;;;;1.50;1.30;;;16.70;99.90;16.70;96373.00;;;;5060918;28;20231;-67
2021/09/17 01:55:23;;;;;;;2.77;1.20;;;16.70;99.90;16.70;96370.00;;;;5075414;28;20210;-68
2021/09/17 01:58:12;;;;;;;2.63;1.10;;;16.70;99.90;16.80;96369.00;;;;5062740;28;20556;-68
2021/09/17 02:01:02;;;;;;;1.10;0.90;;;16.70;99.90;16.90;96358.00;;;;5060038;28;20208;-67
2021/09/17 02:03:51;;;;;;;2.47;0.97;;;16.70;99.90;16.90;96368.00;;;;5067370;28;20250;-68
2021/09/17 02:06:40;;;;;;;1.00;0.80;;;16.70;99.90;16.90;96359.00;;;;5064876;28;20582;-70
2021/09/17 02:09:29;;;;;;;1.17;0.80;;;16.70;99.90;16.90;96369.00;;;;5065069;28;20857;-67
2021/09/17 02:12:20;;;;;;;1.90;1.00;;;16.70;99.90;16.70;96364.00;;;;5065806;28;20927;-71
2021/09/17 02:15:11;;;;;;;1.40;1.10;;;16.70;99.90;16.50;96368.00;;;;5066770;28;20212;-68
2021/09/17 02:18:00;;;;;;;1.70;0.87;;;16.70;99.90;16.60;96361.00;;;;5065767;28;20214;-69
2021/09/17 02:20:49;;;;;;;1.33;0.87;;;16.70;99.90;16.60;96359.00;;;;5065435;28;20792;-68
2021/09/17 02:23:39;;;;;;;1.20;1.03;;;16.60;99.90;16.70;96358.00;;;;5066131;28;20211;-67
2021/09/17 02:26:27;;;;;;;1.60;0.70;;;16.60;99.90;16.80;96365.00;;;;5065469;28;20208;-68
2021/09/17 02:29:18;;;;;;;1.40;0.80;;;16.60;99.90;16.80;96360.00;;;;5065661;28;20211;-70
2021/09/17 02:32:09;;;;;;;2.17;0.90;;;16.60;99.90;16.70;96361.00;;;;5066649;28;20232;-68
2021/09/17 02:34:58;;;;;;;0.73;0.73;;;16.60;99.90;16.60;96360.00;;;;5066126;28;20212;-71
2021/09/17 02:37:46;;;;;;;1.30;1.13;;;16.60;99.90;16.70;96365.00;;;;5068334;28;20220;-70
2021/09/17 02:40:35;;;;;;;1.27;1.17;;;16.60;99.90;16.70;96370.00;;;;5068857;28;20215;-67
2021/09/17 02:43:24;;;;;;;2.00;1.10;;;16.60;99.90;16.80;96372.00;;;;5069149;28;20251;-67
2021/09/17 02:46:15;;;;;;;0.80;0.80;;;16.60;99.90;16.70;96373.00;;;;5068051;28;20212;-68
2021/09/17 02:49:04;;;;;;;0.93;0.70;;;16.60;99.90;16.60;96359.00;;;;5069450;28;20216;-69
2021/09/17 02:51:53;;;;;;;0.70;0.60;;;16.60;99.90;16.60;96358.00;;;;5065008;28;20235;-71
2021/09/17 02:54:42;;;;;;;0.60;0.60;;;16.60;99.90;16.60;96358.00;;;;5084247;28;20199;-68
2021/09/17 02:57:31;;;;;;;1.20;0.90;;;16.60;99.90;16.60;96364.00;;;;5066306;28;20210;-67
2021/09/17 03:00:20;;;;;;;6.17;0.80;;;16.50;99.90;16.70;96352.00;;;;5064287;28;20207;-69
2021/09/17 03:03:10;;;;;;;1.03;0.90;;;16.50;99.90;16.60;96359.00;;;;5065001;28;20220;-68
2021/09/17 03:05:59;;;;;;;1.70;0.83;;;16.50;99.90;16.70;96356.00;;;;5065133;28;20296;-67
2021/09/17 03:08:48;;;;;;;1.53;0.90;;;16.50;99.90;16.70;96351.00;;;;5065278;28;20210;-70
2021/09/17 03:11:37;;;;;;;0.97;0.87;;;16.50;99.90;16.70;96353.00;;;;5075635;28;20579;-68
2021/09/17 03:14:26;;;;;;;1.10;0.83;;;16.50;99.90;16.70;96346.00;;;;5064390;28;20255;-68
2021/09/17 03:17:15;;;;;;;3.33;1.10;;;16.50;99.90;16.60;96356.00;;;;5076719;28;20208;-69
2021/09/17 03:20:06;;;;;;;0.93;0.83;;;16.50;99.90;16.60;96359.00;;;;5064004;28;20208;-71
2021/09/17 03:22:55;;;;;;;3.10;1.10;;;16.50;99.90;16.70;96356.00;;;;5066425;28;20234;-68
2021/09/17 03:25:44;;;;;;;4.50;2.43;;;16.50;99.90;16.70;96360.00;;;;5064757;28;20216;-68
2021/09/17 03:28:33;;;;;;;2.23;0.87;;;16.50;99.90;16.80;96354.00;;;;5065038;28;20204;-70
2021/09/17 03:31:22;;;;;;;2.43;1.13;;;16.60;99.90;16.70;96364.00;;;;5077302;28;20227;-70
2021/09/17 03:34:11;;;;;;;6.47;1.17;;;16.60;99.90;16.70;96353.00;;;;5065202;28;20223;-71
2021/09/17 03:37:02;;;;;;;5.13;1.00;;;16.60;99.90;16.70;96359.00;;;;5065882;28;20219;-67
2021/09/17 03:39:51;;;;;;;4.23;0.90;;;16.60;99.90;16.70;96351.00;;;;5065432;28;20212;-67
2021/09/17 03:42:40;;;;;;;2.63;0.90;;;16.60;99.90;16.60;96345.00;;;;5064998;28;20227;-69
2021/09/17 03:45:31;;;;;;;0.80;0.50;;;16.30;99.90;16.50;96348.00;;;;5065006;28;20671;-68
2021/09/17 03:48:20;;;;;;;3.60;0.80;;;16.50;99.90;16.40;96346.00;;;;5065409;28;20204;-71
2021/09/17 03:51:09;;;;;;;0.80;0.63;;;16.50;99.90;16.40;96350.00;;;;5079458;28;20211;-68
2021/09/17 03:53:59;;;;;;;4.43;1.07;;;16.40;99.90;16.60;96356.00;;;;5076407;28;20223;-68
2021/09/17 03:56:48;;;;;;;1.07;0.80;;;16.40;99.90;16.50;96353.00;;;;5073202;28;20216;-70
2021/09/17 03:59:37;;;;;;;1.43;0.80;;;16.40;99.90;16.50;96353.00;;;;5064668;28;20212;-68
2021/09/17 04:02:26;;;;;;;1.57;0.90;;;16.40;99.90;16.50;96357.00;;;;5064459;28;20220;-69
2021/09/17 04:05:15;;;;;;;3.50;1.07;;;16.40;99.90;16.60;96355.00;;;;5085010;28;20199;-70
2021/09/17 04:08:04;;;;;;;2.87;1.03;;;16.40;99.90;16.60;96363.00;;;;5083754;28;20203;-71
2021/09/17 04:10:55;;;;;;;3.50;1.23;;;16.40;99.90;16.60;96372.00;;;;5083261;28;20222;-70
2021/09/17 04:13:44;;;;;;;2.77;1.00;;;16.50;99.90;16.70;96371.00;;;;5091638;28;20230;-68
2021/09/17 04:16:32;;;;;;;0.97;0.93;;;16.50;99.90;16.60;96367.00;;;;5078906;28;20415;-70
2021/09/17 04:19:21;;;;;;;0.80;0.70;;;16.50;99.90;16.60;96364.00;;;;5084547;28;20202;-69
2021/09/17 04:22:11;;;;;;;1.13;0.93;;;16.50;99.90;16.60;96361.00;;;;5091885;28;20222;-67
2021/09/17 04:25:00;;;;;;;5.00;0.93;;;16.50;99.90;16.50;96364.00;;;;5080144;28;20200;-70
2021/09/17 04:27:50;;;;;;;2.50;0.80;;;16.50;99.90;16.40;96363.00;;;;5080190;28;20207;-71
2021/09/17 04:30:39;;;;;;;1.33;1.03;;;16.40;99.90;16.40;96368.00;;;;5077839;28;20628;-67
2021/09/17 04:33:29;;;;;;;1.37;0.70;;;16.30;99.90;16.50;96364.00;;;;5092911;28;20231;-70
2021/09/17 04:36:18;;;;;;;4.30;1.07;;;16.40;99.90;16.50;96369.00;;;;5087968;28;20202;-67
2021/09/17 04:39:07;;;;;;;1.07;0.83;;;16.40;99.90;16.60;96371.00;;;;5084812;28;21211;-67
2021/09/17 04:41:55;;;;;;;4.67;1.13;;;16.40;99.90;16.60;96379.00;;;;5074066;28;20231;-69
2021/09/17 04:44:46;;;;;;;1.80;1.07;;;16.40;99.90;16.60;96380.00;;;;5064943;28;20208;-68
2021/09/17 04:47:35;;;;;;;1.03;0.90;;;16.40;99.90;16.60;96373.00;;;;5064773;28;20212;-69
2021/09/17 04:50:25;;;;;;;4.77;0.87;;;16.40;99.90;16.50;96374.00;;;;5065153;28;20208;-67
2021/09/17 04:53:14;;;;;;;1.10;1.00;;;16.40;99.90;16.40;96381.00;;;;5063616;28;20232;-70
2021/09/17 04:56:03;;;;;;;0.97;0.90;;;16.40;99.90;16.30;96385.00;;;;5077702;28;20203;-70
2021/09/17 04:59:00;;;;;;;6.00;1.30;;;16.40;99.90;16.30;96387.00;;;;5069227;28;20307;-69
2021/09/17 05:01:50;;;;;;;1.80;1.30;;;16.30;99.90;16.30;96395.00;;;;5084665;28;20242;-67
2021/09/17 05:04:39;;;;;;;1.83;1.10;;;16.30;99.90;16.40;96394.00;;;;5082152;28;20281;-68
2021/09/17 05:07:28;;;;;;;2.13;0.90;;;16.30;99.90;16.50;96404.00;;;;5070674;28;20206;-69
2021/09/17 05:10:17;;;;;;;1.33;1.20;;;16.30;99.90;16.40;96404.00;;;;5081451;28;20208;-71
2021/09/17 05:13:06;;;;;;;0.90;0.90;;;16.30;99.90;16.40;96397.00;;;;5063857;28;20728;-69
2021/09/17 05:15:55;;;;;;;1.07;0.97;;;16.30;99.90;16.50;96407.00;;;;5067970;28;20203;-68
2021/09/17 05:18:45;;;;;;;4.33;1.37;;;16.40;99.90;16.30;96405.00;;;;5076470;28;20483;-68
2021/09/17 05:30:28;;;;;;;1.20;1.10;;;16.30;99.90;16.20;96399.00;;;;5095599;28;20182;-67
2021/09/17 05:33:17;;;;;;;1.37;0.90;;;16.30;99.90;16.40;96401.00;;;;5089045;28;20615;-70
2021/09/17 05:36:07;;;;;;;1.10;1.00;;;16.30;99.90;16.50;96408.00;;;;5065720;28;20208;-67
2021/09/17 05:38:56;;;;;;;2.13;1.30;;;16.30;99.90;16.60;96396.00;;;;5065050;28;20713;-67
2021/09/17 05:41:45;;;;;;;2.33;1.13;;;16.30;99.90;16.70;96407.00;;;;5065948;28;20339;-67
2021/09/17 05:44:34;;;;;;;2.87;1.23;;;16.40;99.90;16.70;96411.00;;;;5063699;28;20210;-67
2021/09/17 05:47:22;;;;;;;1.17;1.00;;;16.50;99.90;16.50;96405.00;;;;5063415;28;20215;-70
2021/09/17 05:50:13;;;;;;;3.03;1.33;;;16.50;99.90;16.50;96404.00;;;;5073558;28;20568;-69
2021/09/17 05:53:03;;;;;;;2.20;0.87;;;16.50;99.90;16.40;96402.00;;;;5063850;28;20718;-67
2021/09/17 05:55:52;;;;;;;1.50;1.03;;;16.40;99.90;16.50;96401.00;;;;5063046;28;20238;-69
2021/09/17 05:58:41;;;;;;;1.77;1.17;;;16.50;99.90;16.50;96411.00;;;;5059993;28;20570;-69
2021/09/17 06:01:30;;;;;;;4.53;0.97;;;16.50;99.90;16.70;96418.00;;;;5063134;28;20219;-67
2021/09/17 06:04:19;;;;;;;1.20;1.10;;;16.50;99.90;16.90;96416.00;;;;5064214;28;20203;-69
2021/09/17 06:07:08;;;;;;;1.40;1.30;;;17.20;99.90;16.80;96413.00;;;;5063371;28;21129;-70
2021/09/17 06:09:58;;;;;;;2.30;0.77;;;16.60;99.90;16.80;96417.00;;;;5064041;28;20291;-69
2021/09/17 06:12:47;;;;;;;1.90;1.20;;;16.60;99.90;16.80;96413.00;;;;5061607;28;20225;-71
2021/09/17 06:15:36;;;;;;;3.07;1.13;;;16.70;99.90;16.80;96415.00;;;;5058745;28;20228;-70
2021/09/17 06:18:25;;;;;;;0.97;0.87;;;16.70;99.90;16.90;96408.00;;;;5060129;28;20200;-69
2021/09/17 06:21:14;;;;;;;1.37;0.60;;;16.70;99.90;16.70;96409.00;;;;5056483;28;20738;-71
2021/09/17 06:24:04;;;;;;;1.87;0.90;;;16.70;99.90;16.80;96404.00;;;;5060017;28;20318;-70
2021/09/17 06:26:54;;;;;;;0.67;0.60;;;16.70;99.90;16.80;96407.00;;;;5061310;28;20204;-68
2021/09/17 06:29:43;;;;;;;1.43;0.70;;;16.70;99.90;16.90;96406.00;;;;5062050;28;20617;-68
2021/09/17 06:32:32;;;;;;;0.70;0.70;;;16.80;99.90;16.90;96401.00;;;;5059779;28;20265;-70
2021/09/17 06:35:21;;;;;;;0.90;0.60;;;16.80;99.90;17.10;96398.00;;;;5061132;28;20223;-70
2021/09/17 06:38:10;;;;;;;1.83;0.60;;;16.80;99.90;17.30;96393.00;;;;5060213;28;20208;-67
2021/09/17 06:41:00;;;;;;;0.93;0.63;;;16.90;99.90;17.40;96403.00;;;;5062027;28;20211;-70
2021/09/17 06:43:51;;;;;;;0.93;0.60;;;17.00;99.90;17.40;96395.00;;;;5062270;28;20223;-71
2021/09/17 06:46:40;;;;;;;0.60;0.50;;;17.10;99.90;17.30;96395.00;;;;5059792;28;20237;-67
2021/09/17 06:49:29;;;;;;;1.90;0.80;;;17.20;99.90;17.40;96398.00;;;;5064918;28;20203;-69
2021/09/17 06:52:18;;;;;;;1.10;1.00;;;17.20;99.90;17.30;96407.00;;;;5065236;28;20236;-70
2021/09/17 06:55:08;;;;;;;2.20;0.90;;;17.20;99.90;17.50;96410.00;;;;5065095;28;20223;-71
2021/09/17 06:58:01;;;;;;;1.00;0.87;;;17.30;99.90;17.70;96416.00;;;;5065662;28;20212;-69
2021/09/17 07:00:51;;;;;;;1.33;0.80;;;17.30;99.90;17.90;96417.00;;;;5058979;28;20200;-67
2021/09/17 07:03:40;;;;;;;0.80;0.80;;;17.40;99.90;18.00;96408.00;;;;5064888;28;20212;-69
2021/09/17 07:06:32;;;;;;;1.70;0.97;;;17.60;99.90;17.80;96408.00;;;;5064906;28;20203;-68
2021/09/17 07:09:21;;;;;;;1.00;0.63;;;17.60;99.90;18.10;96424.00;;;;5063631;28;20598;-69
2021/09/17 07:12:10;;;;;;;0.70;0.60;;;17.70;99.90;18.30;96425.00;;;;5070125;28;20246;-68
2021/09/17 07:14:59;;;;;;;1.00;0.70;;;17.80;99.90;18.30;96416.00;;;;5065486;28;20216;-68
2021/09/17 07:17:49;;;;;;;0.70;0.50;;;17.90;99.90;18.40;96412.00;;;;5065252;28;20291;-68
2021/09/17 07:20:40;;;;;;;0.50;0.50;;;18.00;99.90;18.60;96403.00;;;;5061305;28;20215;-69
2021/09/17 07:23:29;;;;;;;0.50;0.40;;;18.10;99.90;18.70;96409.00;;;;5063509;28;20204;-66
2021/09/17 07:26:18;;;;;;;0.40;0.40;;;18.20;99.90;18.90;96411.00;;;;5065996;28;20199;-67
2021/09/17 07:29:07;;;;;;;0.50;0.50;;;18.30;99.90;18.90;96420.00;;;;5064685;28;20222;-68
2021/09/17 07:31:55;;;;;;;0.70;0.53;;;18.40;99.90;18.70;96419.00;;;;5062842;28;20235;-67
2021/09/17 07:34:46;;;;;;;1.23;0.50;;;18.50;99.90;18.60;96406.00;;;;5059702;28;20208;-69
2021/09/17 07:37:35;;;;;;;0.70;0.70;;;18.40;99.90;18.50;96421.00;;;;5065220;28;20212;-70
2021/09/17 07:40:26;;;;;;;1.83;0.80;;;18.40;99.90;18.40;96424.00;;;;5061786;28;20235;-69
2021/09/17 07:43:15;;;;;;;0.60;0.60;;;18.30;99.90;18.50;96423.00;;;;5064066;28;20223;-70
2021/09/17 07:46:05;;;;;;;0.77;0.77;;;18.30;99.90;18.70;96423.00;;;;5065142;28;20204;-67
2021/09/17 07:48:54;;;;;;;1.40;0.60;;;18.30;99.90;18.60;96430.00;;;;5063122;28;20265;-69
2021/09/17 07:51:44;;;;;;;3.47;2.07;;;18.30;99.90;18.70;96426.00;;;;5062242;28;20234;-69
2021/09/17 07:54:35;;;;;;;1.00;0.87;;;18.40;99.90;18.40;96426.00;;;;5061788;28;20283;-70
2021/09/17 07:57:24;;;;;;;2.67;1.00;;;18.30;99.90;18.30;96420.00;;;;5065283;28;20207;-70
2021/09/17 08:00:15;;;;;;;1.00;0.90;;;18.20;99.90;18.00;96414.00;;;;5061465;28;20212;-69
2021/09/17 08:03:04;;;;;;;0.73;0.73;;;18.00;99.90;18.00;96407.00;;;;5063061;28;20220;-68
2021/09/17 08:05:53;;;;;;;1.23;1.13;;;17.90;99.90;17.90;96412.00;;;;5064627;28;20200;-69
2021/09/17 08:08:44;;;;;;;1.00;0.93;;;17.80;99.90;17.90;96411.00;;;;5067517;28;20210;-68
2021/09/17 08:11:33;;;;;;;1.10;1.00;;;17.70;99.90;17.80;96408.00;;;;5063759;28;20251;-67
2021/09/17 08:14:21;;;;;;;0.90;0.90;;;17.90;99.90;17.70;96409.00;;;;5068538;28;20695;-69
2021/09/17 08:17:10;;;;;;;0.67;0.63;;;17.50;99.90;17.80;96420.00;;;;5065296;28;20227;-68
2021/09/17 08:19:59;;;;;;;1.27;1.03;;;17.50;99.90;17.90;96417.00;;;;5069729;28;20746;-67
2021/09/17 08:22:48;;;;;;;1.13;1.03;;;17.50;99.90;18.00;96412.00;;;;5064123;28;20710;-67
2021/09/17 08:25:38;;;;;;;2.40;1.43;;;17.60;99.90;18.10;96412.00;;;;5069439;28;20207;-68
2021/09/17 08:28:27;;;;;;;1.10;1.00;;;17.60;99.90;18.40;96416.00;;;;5064556;28;20208;-68
2021/09/17 08:31:17;;;;;;;0.80;0.73;;;17.80;99.90;18.50;96417.00;;;;5065770;28;20999;-68
2021/09/17 08:34:07;;;;;;;1.77;1.07;;;17.90;99.90;18.50;96426.00;;;;5066481;28;20211;-70
2021/09/17 08:36:56;;;;;;;1.23;1.13;;;18.00;99.90;18.60;96427.00;;;;5068076;28;20232;-69
2021/09/17 08:39:45;;;;;;;1.33;1.23;;;18.10;99.90;18.60;96427.00;;;;5071452;28;20678;-68
2021/09/17 08:42:36;;;;;;;1.53;1.03;;;18.20;99.90;18.70;96433.00;;;;5064866;28;20606;-67
2021/09/17 08:45:25;;;;;;;1.43;1.33;;;18.20;99.90;18.80;96427.00;;;;5070341;28;20206;-70
2021/09/17 08:48:16;;;;;;;0.90;0.80;;;18.30;99.90;18.50;96428.00;;;;5071375;28;20207;-69
2021/09/17 08:51:05;;;;;;;1.23;1.00;;;18.30;99.90;18.80;96444.00;;;;5058887;28;20446;-71
2021/09/17 08:53:54;;;;;;;3.53;1.10;;;18.30;99.90;19.00;96434.00;;;;5064936;28;20207;-67
2021/09/17 08:56:43;;;;;;;1.20;1.10;;;18.50;99.90;19.10;96430.00;;;;5061545;28;20238;-68
2021/09/17 08:59:34;;;;;;;1.30;1.20;;;18.50;99.90;19.50;96432.00;;;;5064933;28;20544;-69
2021/09/17 09:02:24;;;;;;;2.87;0.80;;;18.70;99.90;19.80;96432.00;;;;5066955;28;20231;-69
2021/09/17 09:05:13;;;;;;;1.20;1.10;;;18.90;99.90;19.80;96433.00;;;;5068936;28;20257;-67
2021/09/17 09:08:04;;;;;;;0.97;0.93;;;19.00;99.90;20.10;96422.00;;;;5065864;28;21685;-67
2021/09/17 09:10:54;;;;;;;1.20;1.00;;;19.20;99.90;20.40;96436.00;;;;5063152;28;20203;-69
2021/09/17 09:14:06;;;;;;;4.30;1.30;;;19.40;99.90;20.50;96440.00;;;;5072073;28;20207;-67
2021/09/17 09:16:57;;;;;;;1.40;1.30;;;19.70;99.90;20.60;96440.00;;;;5069767;28;20215;-70
2021/09/17 09:19:46;;;;;;;1.47;1.37;;;19.90;99.90;20.30;96450.00;;;;5065880;28;20686;-67
2021/09/17 09:22:35;;;;;;;1.30;1.20;;;20.00;99.90;20.70;96439.00;;;;5066350;28;20740;-68
2021/09/17 09:25:24;;;;;;;1.40;1.30;;;20.00;99.90;20.80;96437.00;;;;5066405;28;20629;-67
2021/09/17 09:28:15;;;;;;;1.50;1.03;;;20.10;99.90;20.40;96448.00;;;;5069003;28;20203;-68
2021/09/17 09:31:07;;;;;;;1.47;1.37;;;20.20;99.90;20.50;96450.00;;;;5066425;28;23821;-69
2021/09/17 09:33:58;;;;;;;1.27;1.10;;;20.10;99.90;20.50;96453.00;;;;5071263;28;20202;-67
2021/09/17 09:36:47;;;;;;;1.17;1.07;;;20.10;99.90;20.60;96457.00;;;;5063424;28;20223;-67
2021/09/17 09:39:55;;;;;;;2.27;1.23;;;20.10;99.90;20.50;96452.00;;;;5061979;28;20204;-69
2021/09/17 09:42:48;;;;;;;2.37;1.30;;;20.10;99.90;20.60;96457.00;;;;5064739;28;20679;-69
2021/09/17 09:45:37;;;;;;;1.47;1.33;;;20.20;99.90;20.70;96454.00;;;;5068739;28;20213;-67
2021/09/17 09:48:26;;;;;;;2.43;1.10;;;20.20;99.90;20.40;96469.00;;;;5068269;28;20213;-68
2021/09/17 09:51:16;;;;;;;1.73;1.20;;;20.20;99.90;20.50;96463.00;;;;5062780;28;20219;-68
2021/09/17 09:54:07;;;;;;;1.80;1.40;;;20.20;99.90;20.50;96471.00;;;;5064561;28;20206;-67
2021/09/17 09:56:57;;;;;;;2.63;1.23;;;20.20;99.90;20.60;96466.00;;;;5066644;28;20223;-68
2021/09/17 09:59:48;;;;;;;1.47;1.13;;;20.20;99.90;20.50;96474.00;;;;5067005;28;20769;-67
2021/09/17 10:02:38;;;;;;;1.10;1.00;;;20.20;99.90;20.70;96468.00;;;;5066931;28;20231;-65
2021/09/17 10:05:30;;;;;;;1.70;1.60;;;20.20;99.90;20.90;96466.00;;;;5066522;28;20204;-68
2021/09/17 10:08:21;;;;;;;1.83;1.30;;;20.50;99.90;21.00;96459.00;;;;5064445;28;20192;-68
2021/09/17 10:11:11;;;;;;;1.30;1.20;;;20.40;99.90;21.10;96463.00;;;;5064958;28;20749;-66
2021/09/17 10:14:03;;;;;;;2.50;1.60;;;20.50;99.90;20.90;96459.00;;;;5063354;28;20196;-67
2021/09/17 10:16:52;;;;;;;1.63;1.53;;;20.50;99.90;21.40;96462.00;;;;5060750;28;20231;-66
2021/09/17 10:19:44;;;;;;;1.53;1.20;;;20.60;99.90;21.50;96458.00;;;;5062358;28;20207;-69
2021/09/17 10:22:35;;;;;;;1.77;1.67;;;20.80;99.90;21.70;96462.00;;;;5062082;28;20219;-69
2021/09/17 10:25:26;;;;;;;1.30;1.20;;;20.90;99.90;21.80;96452.00;;;;5066828;28;20338;-67
2021/09/17 10:28:17;;;;;;;2.90;1.27;;;21.10;99.90;22.00;96449.00;;;;5067901;28;20199;-67
2021/09/17 10:31:16;;;;;;;2.10;1.23;;;21.20;99.90;21.90;96457.00;;;;5067405;28;20200;-69
2021/09/17 10:34:30;;;;;;;1.03;1.03;;;21.40;99.90;21.50;96453.00;;;;5073917;28;20211;-67
2021/09/17 10:37:54;;;;;;;1.60;1.50;;;21.50;99.90;22.10;96449.00;;;;5065078;28;20216;-66
2021/09/17 10:40:53;;;;;;;3.07;1.30;;;21.50;99.90;22.20;96447.00;;;;5073236;28;20203;-68
2021/09/17 10:43:46;;;;;;;1.30;1.20;;;21.60;99.90;22.10;96442.00;;;;5070377;28;20726;-66
2021/09/17 10:46:37;;;;;;;5.10;2.80;;;21.80;99.90;22.30;96444.00;;;;5068618;28;20215;-67
2021/09/17 10:50:03;;;;;;;1.77;1.47;;;21.80;99.90;22.50;96449.00;;;;5070593;28;20195;-69
2021/09/17 10:52:52;;;;;;;2.00;1.03;;;21.80;99.90;22.40;96448.00;;;;5073847;28;20230;-69
2021/09/17 10:56:03;;;;;;;1.63;1.53;;;21.90;99.90;22.70;96452.00;;;;5070389;28;20214;-68
2021/09/17 10:59:14;;;;;;;2.37;1.17;;;22.10;99.90;22.10;96446.00;;;;5066785;28;20590;-67
2021/09/17 11:02:06;;;;;;;2.27;1.30;;;22.10;98.10;22.30;96445.00;;;;5073250;28;20223;-67
2021/09/17 11:05:16;;;;;;;1.30;1.17;;;22.10;97.70;22.30;96443.00;;;;5065041;28;20208;-66
2021/09/17 11:08:39;;;;;;;1.47;1.20;;;22.00;95.50;22.50;96450.00;;;;5065239;28;20207;-67
2021/09/17 11:11:33;;;;;;;2.87;1.20;;;22.10;96.20;22.20;96447.00;;;;5070097;28;20625;-66
2021/09/17 11:14:25;;;;;;;1.40;1.30;;;22.10;92.40;23.30;96401.00;;;;5068421;28;20199;-67
2021/09/17 11:17:14;;;;;;;1.50;1.40;;;22.30;94.40;24.20;96424.00;;;;5066951;28;20224;-67
2021/09/17 11:20:04;;;;;;;1.40;1.30;;;22.70;96.00;25.10;96390.00;;;;5068342;28;20262;-69
2021/09/17 11:23:01;;;;;;;1.37;1.27;;;23.40;95.40;26.50;96404.00;;;;5069488;28;20953;-67
2021/09/17 11:25:50;;;;;;;1.50;1.40;;;24.30;95.30;26.90;96393.00;;;;5069222;28;20269;-68
2021/09/17 11:28:40;;;;;;;1.23;0.80;;;25.10;91.90;25.20;96435.00;;;;5068569;28;20207;-67
2021/09/17 11:31:32;;;;;;;1.23;1.13;;;25.40;76.60;24.50;96431.00;;;;5069032;28;20373;-67
2021/09/17 11:34:24;;;;;;;1.47;1.20;;;25.10;74.80;23.60;96433.00;;;;5069065;28;20205;-67
2021/09/17 11:37:13;;;;;;;1.27;1.17;;;24.50;74.90;24.80;96421.00;;;;5068216;28;20224;-69
2021/09/17 11:40:08;;;;;;;1.40;1.30;;;24.30;76.20;25.40;96416.00;;;;5071373;28;20201;-67
2021/09/17 11:42:57;;;;;;;1.57;1.40;;;24.40;79.80;24.90;96385.00;;;;5070508;28;20230;-67
2021/09/17 11:45:49;;;;;;;2.40;1.30;;;24.50;76.60;25.00;96398.00;;;;5069764;28;20320;-70
2021/09/17 11:48:38;;;;;;;1.03;0.97;;;24.60;74.10;25.10;96423.00;;;;5069117;28;20210;-67
2021/09/17 11:51:27;;;;;;;2.03;0.93;;;24.80;70.60;24.90;96381.00;;;;5072512;28;20227;-69
2021/09/17 11:54:20;;;;;;;0.60;0.60;;;24.70;70.00;23.40;96380.00;;;;5067322;28;20237;-67
2021/09/17 11:57:11;;;;;;;0.97;0.90;;;24.40;67.40;25.80;96399.00;;;;5064074;28;20224;-69
2021/09/17 12:00:00;;;;;;;0.80;0.80;;;24.70;68.60;27.10;96396.00;;;;5067344;28;20204;-71
2021/09/17 12:02:54;;;;;;;1.57;1.00;;;25.20;69.40;24.40;96392.00;;;;5069182;28;20228;-67
2021/09/17 12:05:44;;;;;;;0.90;0.90;;;25.20;62.00;25.70;96397.00;;;;5065258;28;20194;-68
2021/09/17 12:08:33;;;;;;;0.90;0.90;;;25.20;64.10;26.80;96419.00;;;;5070227;28;20210;-67
2021/09/17 12:11:22;;;;;;;1.50;1.00;;;25.60;64.50;25.90;96374.00;;;;5071164;28;20604;-69
2021/09/17 12:14:11;;;;;;;1.20;1.10;;;25.30;65.60;24.20;96366.00;;;;5065909;28;20609;-69
2021/09/17 12:17:05;;;;;;;0.90;0.90;;;25.00;61.90;23.70;96382.00;;;;5069211;28;20701;-67
2021/09/17 12:19:58;;;;;;;3.33;1.37;;;24.30;63.20;24.60;96389.00;;;;5063163;28;20654;-71
2021/09/17 12:22:58;;;;;;;1.03;0.93;;;24.30;65.20;24.50;96393.00;;;;5064350;28;20229;-68
2021/09/17 12:25:48;;;;;;;1.23;0.97;;;24.40;64.40;26.40;96389.00;;;;5064549;28;20206;-68
2021/09/17 12:28:40;;;;;;;0.80;0.80;;;24.80;64.10;26.60;96395.00;;;;5062952;28;20678;-68
2021/09/17 12:31:31;;;;;;;1.17;1.07;;;25.40;59.70;27.30;96393.00;;;;5064048;28;20213;-68
2021/09/17 12:34:22;;;;;;;3.70;0.93;;;25.70;60.10;27.70;96387.00;;;;5068392;28;20208;-68
2021/09/17 12:37:14;;;;;;;1.10;1.10;;;26.10;59.80;26.00;96385.00;;;;5063832;28;20211;-69
2021/09/17 12:40:15;;;;;;;2.22;1.40;;;26.10;58.40;26.90;96445.00;;;;5065095;28;20652;-68
2021/09/17 12:43:06;;;;;;;3.95;1.83;;;26.10;59.50;27.40;96383.00;;;;5067937;28;20243;-68
2021/09/17 12:46:00;;;;;;;1.10;1.00;;;26.20;60.70;25.80;96373.00;;;;5065363;28;20214;-68
2021/09/17 12:48:51;;;;;;;1.02;0.98;;;26.20;58.10;27.80;96377.00;;;;5063679;28;20720;-68